sensor_id;sensor_type;location;lat;lon;timestamp;pressure;altitude;pressure_sealevel;temperature;humidity
25156;BME280;21913;52.456;13.634;2022-07-30T00:02:50;100386.56;;;21.69;67.63
25156;BME280;21913;52.456;13.634;2022-07-30T00:07:52;100384.84;;;21.68;67.82
25156;BME280;21913;52.456;13.634;2022-07-30T00:12:54;100377.09;;;21.65;68.06
25156;BME280;21913;52.456;13.634;2022-07-30T00:17:56;100378.88;;;21.64;67.67
25156;BME280;21913;52.456;13.634;2022-07-30T00:23:02;100380.59;;;21.64;67.99
25156;BME280;21913;52.456;13.634;2022-07-30T00:28:04;100375.41;;;21.62;68.02
25156;BME280;21913;52.456;13.634;2022-07-30T00:33:05;100382.53;;;21.60;67.87
25156;BME280;21913;52.456;13.634;2022-07-30T00:38:07;100379.97;;;21.59;68.14
25156;BME280;21913;52.456;13.634;2022-07-30T00:43:12;100380.84;;;21.58;68.23
25156;BME280;21913;52.456;13.634;2022-07-30T00:48:14;100365.06;;;21.58;68.00
25156;BME280;21913;52.456;13.634;2022-07-30T00:53:16;100359.00;;;21.56;68.16
25156;BME280;21913;52.456;13.634;2022-07-30T00:58:18;100362.56;;;21.55;68.29
25156;BME280;21913;52.456;13.634;2022-07-30T01:03:20;100352.03;;;21.55;68.27
25156;BME280;21913;52.456;13.634;2022-07-30T01:08:23;100350.34;;;21.53;68.46
25156;BME280;21913;52.456;13.634;2022-07-30T01:13:25;100354.78;;;21.51;68.59
25156;BME280;21913;52.456;13.634;2022-07-30T01:18:28;100345.19;;;21.50;68.20
25156;BME280;21913;52.456;13.634;2022-07-30T01:23:33;100349.59;;;21.50;68.19
25156;BME280;21913;52.456;13.634;2022-07-30T01:28:44;100339.13;;;21.48;68.40
25156;BME280;21913;52.456;13.634;2022-07-30T01:33:54;100339.13;;;21.48;68.29
25156;BME280;21913;52.456;13.634;2022-07-30T01:38:57;100333.06;;;21.46;68.38
25156;BME280;21913;52.456;13.634;2022-07-30T01:44:00;100338.31;;;21.46;68.40
25156;BME280;21913;52.456;13.634;2022-07-30T01:49:04;100337.47;;;21.46;68.36
25156;BME280;21913;52.456;13.634;2022-07-30T01:54:07;100333.13;;;21.45;68.60
25156;BME280;21913;52.456;13.634;2022-07-30T01:59:09;100343.72;;;21.43;68.46
25156;BME280;21913;52.456;13.634;2022-07-30T02:04:18;100347.28;;;21.42;68.58
25156;BME280;21913;52.456;13.634;2022-07-30T02:09:21;100350.81;;;21.41;68.56
25156;BME280;21913;52.456;13.634;2022-07-30T02:14:28;100348.16;;;21.41;68.52
25156;BME280;21913;52.456;13.634;2022-07-30T02:19:32;100354.34;;;21.40;68.82
25156;BME280;21913;52.456;13.634;2022-07-30T02:24:40;100350.88;;;21.40;68.55
25156;BME280;21913;52.456;13.634;2022-07-30T02:29:43;100358.84;;;21.38;68.59
25156;BME280;21913;52.456;13.634;2022-07-30T02:34:47;100354.50;;;21.37;68.70
25156;BME280;21913;52.456;13.634;2022-07-30T02:39:50;100357.97;;;21.38;68.94
25156;BME280;21913;52.456;13.634;2022-07-30T02:44:52;100364.16;;;21.37;68.81
25156;BME280;21913;52.456;13.634;2022-07-30T02:49:56;100360.72;;;21.35;68.96
25156;BME280;21913;52.456;13.634;2022-07-30T02:54:58;100366.84;;;21.35;69.13
25156;BME280;21913;52.456;13.634;2022-07-30T03:00:03;100365.97;;;21.35;69.11
25156;BME280;21913;52.456;13.634;2022-07-30T03:05:06;100364.28;;;21.34;69.05
25156;BME280;21913;52.456;13.634;2022-07-30T03:10:08;100364.34;;;21.32;68.79
25156;BME280;21913;52.456;13.634;2022-07-30T03:15:12;100359.09;;;21.32;68.95
25156;BME280;21913;52.456;13.634;2022-07-30T03:20:14;100356.47;;;21.31;69.11
25156;BME280;21913;52.456;13.634;2022-07-30T03:25:21;100360.03;;;21.30;69.10
25156;BME280;21913;52.456;13.634;2022-07-30T03:30:24;100362.66;;;21.30;69.05
25156;BME280;21913;52.456;13.634;2022-07-30T03:35:27;100367.03;;;21.29;69.24
25156;BME280;21913;52.456;13.634;2022-07-30T03:40:28;100366.25;;;21.27;69.35
25156;BME280;21913;52.456;13.634;2022-07-30T03:45:31;100370.59;;;21.28;69.35
25156;BME280;21913;52.456;13.634;2022-07-30T03:50:38;100370.66;;;21.26;69.17
25156;BME280;21913;52.456;13.634;2022-07-30T03:55:43;100361.91;;;21.26;69.10
25156;BME280;21913;52.456;13.634;2022-07-30T04:01:23;100371.56;;;21.25;69.21
25156;BME280;21913;52.456;13.634;2022-07-30T04:06:26;100375.97;;;21.25;69.30
25156;BME280;21913;52.456;13.634;2022-07-30T04:11:27;100387.41;;;21.24;69.27
25156;BME280;21913;52.456;13.634;2022-07-30T04:16:55;100388.34;;;21.23;69.12
25156;BME280;21913;52.456;13.634;2022-07-30T04:22:02;100399.78;;;21.22;69.36
25156;BME280;21913;52.456;13.634;2022-07-30T04:27:07;100416.44;;;21.22;69.24
25156;BME280;21913;52.456;13.634;2022-07-30T04:32:09;100427.88;;;21.21;69.47
25156;BME280;21913;52.456;13.634;2022-07-30T04:37:32;100427.91;;;21.20;69.45
25156;BME280;21913;52.456;13.634;2022-07-30T04:42:34;100419.16;;;21.19;69.42
25156;BME280;21913;52.456;13.634;2022-07-30T04:47:42;100429.69;;;21.19;69.44
25156;BME280;21913;52.456;13.634;2022-07-30T04:53:02;100432.38;;;21.18;69.53
25156;BME280;21913;52.456;13.634;2022-07-30T04:58:08;100427.13;;;21.18;69.52
25156;BME280;21913;52.456;13.634;2022-07-30T05:03:12;100434.16;;;21.17;69.14
25156;BME280;21913;52.456;13.634;2022-07-30T05:08:18;100434.16;;;21.17;69.18
25156;BME280;21913;52.456;13.634;2022-07-30T05:13:26;100445.59;;;21.16;69.18
25156;BME280;21913;52.456;13.634;2022-07-30T05:18:28;100457.91;;;21.16;69.53
25156;BME280;21913;52.456;13.634;2022-07-30T05:23:29;100462.31;;;21.15;69.49
25156;BME280;21913;52.456;13.634;2022-07-30T05:28:40;100462.34;;;21.14;69.61
25156;BME280;21913;52.456;13.634;2022-07-30T05:33:46;100464.97;;;21.14;69.44
25156;BME280;21913;52.456;13.634;2022-07-30T05:38:51;100458.88;;;21.13;69.35
25156;BME280;21913;52.456;13.634;2022-07-30T05:43:59;100459.78;;;21.12;69.31
25156;BME280;21913;52.456;13.634;2022-07-30T05:49:01;100466.81;;;21.12;69.51
25156;BME280;21913;52.456;13.634;2022-07-30T05:54:03;100469.44;;;21.12;69.52
25156;BME280;21913;52.456;13.634;2022-07-30T05:59:07;100476.50;;;21.11;69.37
25156;BME280;21913;52.456;13.634;2022-07-30T06:04:41;100482.66;;;21.10;69.35
25156;BME280;21913;52.456;13.634;2022-07-30T06:09:43;100484.44;;;21.10;69.45
25156;BME280;21913;52.456;13.634;2022-07-30T06:14:45;100497.59;;;21.10;69.43
25156;BME280;21913;52.456;13.634;2022-07-30T06:19:51;100486.19;;;21.09;69.59
25156;BME280;21913;52.456;13.634;2022-07-30T06:24:55;100484.47;;;21.08;69.69
25156;BME280;21913;52.456;13.634;2022-07-30T06:30:00;100494.16;;;21.08;69.68
25156;BME280;21913;52.456;13.634;2022-07-30T06:35:03;100499.41;;;21.08;69.52
25156;BME280;21913;52.456;13.634;2022-07-30T06:40:06;100504.66;;;21.08;69.66
25156;BME280;21913;52.456;13.634;2022-07-30T06:45:24;100509.94;;;21.08;69.46
25156;BME280;21913;52.456;13.634;2022-07-30T06:50:45;100502.97;;;21.07;69.49
25156;BME280;21913;52.456;13.634;2022-07-30T06:55:46;100513.47;;;21.07;69.37
25156;BME280;21913;52.456;13.634;2022-07-30T07:00:48;100507.38;;;21.06;69.56
25156;BME280;21913;52.456;13.634;2022-07-30T07:05:50;100505.66;;;21.05;69.64
25156;BME280;21913;52.456;13.634;2022-07-30T07:10:51;100506.50;;;21.06;69.78
25156;BME280;21913;52.456;13.634;2022-07-30T07:16:04;100517.88;;;21.06;69.54
25156;BME280;21913;52.456;13.634;2022-07-30T07:21:07;100517.94;;;21.05;69.36
25156;BME280;21913;52.456;13.634;2022-07-30T07:26:10;100509.13;;;21.06;69.47
25156;BME280;21913;52.456;13.634;2022-07-30T07:31:12;100502.97;;;21.07;69.52
25156;BME280;21913;52.456;13.634;2022-07-30T07:36:14;100499.41;;;21.08;69.38
25156;BME280;21913;52.456;13.634;2022-07-30T07:41:16;100509.94;;;21.08;69.43
25156;BME280;21913;52.456;13.634;2022-07-30T07:46:18;100511.66;;;21.09;69.76
25156;BME280;21913;52.456;13.634;2022-07-30T07:51:20;100507.22;;;21.11;69.47
25156;BME280;21913;52.456;13.634;2022-07-30T07:56:21;100505.50;;;21.10;69.53
25156;BME280;21913;52.456;13.634;2022-07-30T08:01:24;100501.88;;;21.12;69.70
25156;BME280;21913;52.456;13.634;2022-07-30T08:06:44;100502.72;;;21.13;69.69
25156;BME280;21913;52.456;13.634;2022-07-30T08:12:05;100497.41;;;21.14;69.55
25156;BME280;21913;52.456;13.634;2022-07-30T08:17:26;100498.25;;;21.15;69.69
25156;BME280;21913;52.456;13.634;2022-07-30T08:22:46;100491.13;;;21.18;69.61
25156;BME280;21913;52.456;13.634;2022-07-30T08:27:49;100497.75;;;21.30;65.49
25156;BME280;21913;52.456;13.634;2022-07-30T08:32:51;100496.66;;;21.36;62.82
25156;BME280;21913;52.456;13.634;2022-07-30T08:37:53;100497.63;;;21.33;62.20
25156;BME280;21913;52.456;13.634;2022-07-30T09:56:58;100533.22;;;21.18;67.48
25156;BME280;21913;52.456;13.634;2022-07-30T10:02:03;100535.06;;;21.16;67.69
25156;BME280;21913;52.456;13.634;2022-07-30T10:07:23;100535.06;;;21.16;67.77
25156;BME280;21913;52.456;13.634;2022-07-30T10:12:25;100547.38;;;21.16;67.91
25156;BME280;21913;52.456;13.634;2022-07-30T10:17:29;100539.47;;;21.16;67.89
25156;BME280;21913;52.456;13.634;2022-07-30T10:23:05;100543.75;;;21.18;66.30
25156;BME280;21913;52.456;13.634;2022-07-30T11:35:20;100535.94;;;21.17;64.73
25156;BME280;21913;52.456;13.634;2022-07-30T11:40:20;100539.50;;;21.14;65.18
25156;BME280;21913;52.456;13.634;2022-07-30T11:45:21;100524.69;;;21.12;65.86
25156;BME280;21913;52.456;13.634;2022-07-30T11:50:25;100524.75;;;21.10;66.14
25156;BME280;21913;52.456;13.634;2022-07-30T11:55:28;100512.47;;;21.11;66.40
25156;BME280;21913;52.456;13.634;2022-07-30T12:00:34;100514.28;;;21.09;66.62
25156;BME280;21913;52.456;13.634;2022-07-30T12:05:36;100524.78;;;21.09;66.56
25156;BME280;21913;52.456;13.634;2022-07-30T13:30:35;100506.00;;;21.19;62.28
25156;BME280;21913;52.456;13.634;2022-07-30T13:35:37;100511.41;;;21.15;63.11
25156;BME280;21913;52.456;13.634;2022-07-30T13:40:38;100511.53;;;21.12;64.24
25156;BME280;21913;52.456;13.634;2022-07-30T13:45:40;100498.50;;;21.09;64.76
25156;BME280;21913;52.456;13.634;2022-07-30T13:50:41;100502.97;;;21.07;65.25
25156;BME280;21913;52.456;13.634;2022-07-30T13:55:44;100507.38;;;21.06;65.31
25156;BME280;21913;52.456;13.634;2022-07-30T14:00:46;100502.97;;;21.07;65.87
25156;BME280;21913;52.456;13.634;2022-07-30T14:05:48;100503.88;;;21.06;65.73
25156;BME280;21913;52.456;13.634;2022-07-30T14:10:49;100497.75;;;21.05;66.36
25156;BME280;21913;52.456;13.634;2022-07-30T14:15:51;100502.16;;;21.05;66.43
25156;BME280;21913;52.456;13.634;2022-07-30T14:20:52;100493.41;;;21.04;66.39
25156;BME280;21913;52.456;13.634;2022-07-30T14:25:54;100491.66;;;21.05;66.78
25156;BME280;21913;52.456;13.634;2022-07-30T14:30:55;100498.69;;;21.04;66.59
25156;BME280;21913;52.456;13.634;2022-07-30T14:35:56;100489.91;;;21.04;67.00
25156;BME280;21913;52.456;13.634;2022-07-30T14:40:58;100475.91;;;21.03;67.11
25156;BME280;21913;52.456;13.634;2022-07-30T14:45:59;100487.28;;;21.04;67.28
25156;BME280;21913;52.456;13.634;2022-07-30T14:51:01;100472.38;;;21.04;66.98
25156;BME280;21913;52.456;13.634;2022-07-30T14:56:20;100470.63;;;21.03;67.11
25156;BME280;21913;52.456;13.634;2022-07-30T15:01:25;100476.75;;;21.04;67.16
25156;BME280;21913;52.456;13.634;2022-07-30T15:06:26;100479.38;;;21.04;67.34
25156;BME280;21913;52.456;13.634;2022-07-30T15:11:28;100481.16;;;21.03;67.65
25156;BME280;21913;52.456;13.634;2022-07-30T15:16:37;100474.13;;;21.04;67.34
25156;BME280;21913;52.456;13.634;2022-07-30T15:21:38;100476.75;;;21.04;67.47
25156;BME280;21913;52.456;13.634;2022-07-30T15:26:39;100477.63;;;21.04;67.83
25156;BME280;21913;52.456;13.634;2022-07-30T15:31:41;100476.75;;;21.04;67.72
25156;BME280;21913;52.456;13.634;2022-07-30T15:36:42;100486.41;;;21.03;67.90
25156;BME280;21913;52.456;13.634;2022-07-30T15:41:44;100475.00;;;21.04;67.87
25156;BME280;21913;52.456;13.634;2022-07-30T15:46:45;100475.91;;;21.03;67.86
25156;BME280;21913;52.456;13.634;2022-07-30T15:51:47;100475.91;;;21.03;67.76
25156;BME280;21913;52.456;13.634;2022-07-30T15:56:48;100487.28;;;21.04;68.03
25156;BME280;21913;52.456;13.634;2022-07-30T16:01:50;100470.63;;;21.03;68.11
25156;BME280;21913;52.456;13.634;2022-07-30T16:06:51;100475.88;;;21.05;67.92
25156;BME280;21913;52.456;13.634;2022-07-30T16:11:53;100472.41;;;21.02;67.89
25156;BME280;21913;52.456;13.634;2022-07-30T16:16:54;100481.16;;;21.03;68.08
25156;BME280;21913;52.456;13.634;2022-07-30T16:21:55;100476.75;;;21.04;67.97
25156;BME280;21913;52.456;13.634;2022-07-30T16:26:57;100476.75;;;21.04;68.22
25156;BME280;21913;52.456;13.634;2022-07-30T16:31:58;100480.28;;;21.04;68.17
25156;BME280;21913;52.456;13.634;2022-07-30T16:37:00;100471.50;;;21.04;68.17
25156;BME280;21913;52.456;13.634;2022-07-30T16:42:01;100468.84;;;21.04;68.43
25156;BME280;21913;52.456;13.634;2022-07-30T16:47:03;100477.63;;;21.04;68.12
25156;BME280;21913;52.456;13.634;2022-07-30T16:52:05;100473.25;;;21.03;68.27
25156;BME280;21913;52.456;13.634;2022-07-30T16:57:06;100475.03;;;21.02;68.22
25156;BME280;21913;52.456;13.634;2022-07-30T17:02:07;100481.16;;;21.03;68.19
25156;BME280;21913;52.456;13.634;2022-07-30T17:07:09;100481.16;;;21.03;68.29
25156;BME280;21913;52.456;13.634;2022-07-30T17:12:10;100482.00;;;21.04;68.51
25156;BME280;21913;52.456;13.634;2022-07-30T17:17:12;100481.16;;;21.03;68.69
25156;BME280;21913;52.456;13.634;2022-07-30T17:22:14;100482.00;;;21.04;68.34
25156;BME280;21913;52.456;13.634;2022-07-30T17:27:16;100481.16;;;21.03;68.28
25156;BME280;21913;52.456;13.634;2022-07-30T17:32:19;100486.41;;;21.03;68.30
25156;BME280;21913;52.456;13.634;2022-07-30T17:37:21;100496.09;;;21.02;68.33
25156;BME280;21913;52.456;13.634;2022-07-30T17:42:22;100500.50;;;21.02;68.33
25156;BME280;21913;52.456;13.634;2022-07-30T17:47:24;100498.78;;;21.01;68.35
25156;BME280;21913;52.456;13.634;2022-07-30T17:52:25;100504.97;;;21.00;68.66
25156;BME280;21913;52.456;13.634;2022-07-30T17:57:27;100508.44;;;21.00;68.38
25156;BME280;21913;52.456;13.634;2022-07-30T18:02:28;100512.84;;;21.00;68.46
25156;BME280;21913;52.456;13.634;2022-07-30T18:07:30;100519.88;;;20.99;68.43
25156;BME280;21913;52.456;13.634;2022-07-30T18:12:31;100518.09;;;21.00;68.74
25156;BME280;21913;52.456;13.634;2022-07-30T18:17:33;100519.03;;;20.99;68.44
25156;BME280;21913;52.456;13.634;2022-07-30T18:22:34;100527.78;;;20.99;68.59
25156;BME280;21913;52.456;13.634;2022-07-30T18:27:36;100526.91;;;20.99;68.84
25156;BME280;21913;52.456;13.634;2022-07-30T18:32:37;100526.03;;;20.98;68.57
25156;BME280;21913;52.456;13.634;2022-07-30T18:37:39;100532.19;;;20.99;68.56
25156;BME280;21913;52.456;13.634;2022-07-30T18:42:40;100528.66;;;20.98;68.59
25156;BME280;21913;52.456;13.634;2022-07-30T18:47:42;100535.69;;;20.98;68.68
25156;BME280;21913;52.456;13.634;2022-07-30T18:52:44;100536.56;;;20.98;68.97
25156;BME280;21913;52.456;13.634;2022-07-30T18:57:46;100536.56;;;20.98;68.74
25156;BME280;21913;52.456;13.634;2022-07-30T19:02:47;100539.19;;;20.98;68.92
25156;BME280;21913;52.456;13.634;2022-07-30T19:07:49;100535.69;;;20.98;68.92
25156;BME280;21913;52.456;13.634;2022-07-30T19:12:50;100540.97;;;20.98;69.08
25156;BME280;21913;52.456;13.634;2022-07-30T19:17:51;100554.97;;;20.98;68.75
25156;BME280;21913;52.456;13.634;2022-07-30T19:23:00;100551.47;;;20.98;68.81
25156;BME280;21913;52.456;13.634;2022-07-30T19:28:02;100554.97;;;20.98;69.08
25156;BME280;21913;52.456;13.634;2022-07-30T19:33:04;100566.38;;;20.99;68.93
25156;BME280;21913;52.456;13.634;2022-07-30T19:38:07;100564.69;;;20.96;68.87
25156;BME280;21913;52.456;13.634;2022-07-30T19:43:09;100570.81;;;20.97;68.94
25156;BME280;21913;52.456;13.634;2022-07-30T19:48:11;100562.06;;;20.96;68.88
25156;BME280;21913;52.456;13.634;2022-07-30T19:53:12;100576.06;;;20.97;68.82
25156;BME280;21913;52.456;13.634;2022-07-30T19:58:13;100575.22;;;20.96;69.13
25156;BME280;21913;52.456;13.634;2022-07-30T20:03:15;100587.50;;;20.96;68.98
25156;BME280;21913;52.456;13.634;2022-07-30T20:08:17;100591.00;;;20.96;69.08
25156;BME280;21913;52.456;13.634;2022-07-30T20:13:18;100590.13;;;20.96;69.21
25156;BME280;21913;52.456;13.634;2022-07-30T20:18:20;100598.03;;;20.96;68.92
25156;BME280;21913;52.456;13.634;2022-07-30T20:23:21;100598.03;;;20.96;69.38
25156;BME280;21913;52.456;13.634;2022-07-30T20:28:23;100600.59;;;20.97;69.64
25156;BME280;21913;52.456;13.634;2022-07-30T20:33:24;100599.75;;;20.97;69.46
25156;BME280;21913;52.456;13.634;2022-07-30T20:38:25;100595.41;;;20.96;69.50
25156;BME280;21913;52.456;13.634;2022-07-30T20:43:27;100612.03;;;20.96;69.35
25156;BME280;21913;52.456;13.634;2022-07-30T20:48:28;100603.28;;;20.96;69.37
25156;BME280;21913;52.456;13.634;2022-07-30T20:53:30;100602.44;;;20.95;69.42
25156;BME280;21913;52.456;13.634;2022-07-30T20:58:31;100599.81;;;20.95;69.44
25156;BME280;21913;52.456;13.634;2022-07-30T21:03:33;100610.25;;;20.97;69.21
25156;BME280;21913;52.456;13.634;2022-07-30T21:08:34;100610.31;;;20.95;69.38
25156;BME280;21913;52.456;13.634;2022-07-30T21:13:36;100620.84;;;20.95;69.16
25156;BME280;21913;52.456;13.634;2022-07-30T21:18:37;100625.19;;;20.96;69.07
25156;BME280;21913;52.456;13.634;2022-07-30T21:23:38;100621.72;;;20.96;69.10
25156;BME280;21913;52.456;13.634;2022-07-30T21:28:40;100624.34;;;20.96;69.09
25156;BME280;21913;52.456;13.634;2022-07-30T21:33:41;100620.84;;;20.95;69.50
25156;BME280;21913;52.456;13.634;2022-07-30T21:38:43;100626.97;;;20.96;69.28
25156;BME280;21913;52.456;13.634;2022-07-30T21:43:45;100621.72;;;20.96;69.17
25156;BME280;21913;52.456;13.634;2022-07-30T21:48:46;100619.06;;;20.96;69.43
25156;BME280;21913;52.456;13.634;2022-07-30T21:53:48;100618.22;;;20.95;69.45
25156;BME280;21913;52.456;13.634;2022-07-30T21:58:49;100615.59;;;20.95;69.50
25156;BME280;21913;52.456;13.634;2022-07-30T22:03:51;100615.59;;;20.95;69.48
25156;BME280;21913;52.456;13.634;2022-07-30T22:08:52;100609.47;;;20.95;69.44
25156;BME280;21913;52.456;13.634;2022-07-30T22:13:53;100612.97;;;20.95;69.46
25156;BME280;21913;52.456;13.634;2022-07-30T22:18:55;100616.44;;;20.96;69.21
25156;BME280;21913;52.456;13.634;2022-07-30T22:23:56;100618.22;;;20.95;69.17
25156;BME280;21913;52.456;13.634;2022-07-30T22:28:58;100610.31;;;20.95;69.32
25156;BME280;21913;52.456;13.634;2022-07-30T22:33:59;100608.63;;;20.94;69.34
25156;BME280;21913;52.456;13.634;2022-07-30T22:39:01;100607.69;;;20.95;69.28
25156;BME280;21913;52.456;13.634;2022-07-30T22:44:02;100599.81;;;20.95;69.26
25156;BME280;21913;52.456;13.634;2022-07-30T22:49:03;100595.41;;;20.96;69.48
25156;BME280;21913;52.456;13.634;2022-07-30T22:54:05;100589.28;;;20.95;69.55
25156;BME280;21913;52.456;13.634;2022-07-30T22:59:12;100577.06;;;20.94;69.23
25156;BME280;21913;52.456;13.634;2022-07-30T23:04:14;100570.03;;;20.95;69.16
25156;BME280;21913;52.456;13.634;2022-07-30T23:09:15;100570.03;;;20.95;69.59
25156;BME280;21913;52.456;13.634;2022-07-30T23:14:19;100568.25;;;20.95;69.18
25156;BME280;21913;52.456;13.634;2022-07-30T23:19:21;100558.56;;;20.96;69.37
25156;BME280;21913;52.456;13.634;2022-07-30T23:24:22;100556.88;;;20.95;69.25
25156;BME280;21913;52.456;13.634;2022-07-30T23:29:24;100556.88;;;20.95;69.37
25156;BME280;21913;52.456;13.634;2022-07-30T23:34:25;100559.50;;;20.95;69.23
25156;BME280;21913;52.456;13.634;2022-07-30T23:39:27;100563.91;;;20.94;69.28
25156;BME280;21913;52.456;13.634;2022-07-30T23:44:28;100561.28;;;20.94;69.26
25156;BME280;21913;52.456;13.634;2022-07-30T23:49:32;100562.97;;;20.95;69.33
25156;BME280;21913;52.456;13.634;2022-07-30T23:54:34;100556.88;;;20.95;69.42
25156;BME280;21913;52.456;13.634;2022-07-30T23:59:35;100551.59;;;20.95;69.30
